»·PEaware :: N1128 KSBA-KLAS

N1128 :: KSBA-KLAS

FLIGHT INFORMATION

Flight Status: Arrived
Operator: Privately registered:
United States
More flights under this callsign
Pilot: Siddique N. (20419)
Aircraft: Unknown
(BT7)
More flights by this aircraft type
Origin: KSBA Santa Barbara Mun
United States
Destination: KLAS McCarran Intl
United States
More flights between these airports :: More routes between these airports
Route: +MISHN3 NNAVY MISEN KEPEC6
File this flight plan on PilotEdge
Remarks:
Altitude:
(Current/Filed)
27,000ft
Speed:
(Current/Filed)
300kts
Departed: 03-Sep-20 10:09 AM
Arrived: 03-Sep-20 10:59 AM
Distance/Time
Traveled:
250nm/0:49
Distance/Time
To Go:
Arrived

Flight Plot

Page will automatically refresh every two minutes.

Flight plan parsing failed; only flown route is shown


Map Options




Map Legend


Flown Route
Filed Route
Departure Airport
Arrival Airport
Navaid (VOR, NDB)
Fix

Horizontal Profiles

Position Reports

Time Latitude Longitude Heading Altitude Ground
Speed
03-Sep-20 09:55 34.422638 -119.835583 340 15ft 0kts
03-Sep-20 09:56 34.422638 -119.835583 340 15ft 0kts
03-Sep-20 09:57 34.422638 -119.835583 340 15ft 0kts
03-Sep-20 09:58 34.422638 -119.835583 340 15ft 0kts
03-Sep-20 09:59 34.422638 -119.835583 340 15ft 0kts
03-Sep-20 10:00 34.422638 -119.835583 340 15ft 0kts
03-Sep-20 10:01 34.422638 -119.835583 340 15ft 0kts
03-Sep-20 10:02 34.422638 -119.835583 340 15ft 0kts
03-Sep-20 10:03 34.422940 -119.836745 293 15ft 13kts
03-Sep-20 10:04 34.428896 -119.839027 344 15ft 33kts
03-Sep-20 10:05 34.430327 -119.839530 322 15ft 0kts
03-Sep-20 10:06 34.430327 -119.839530 322 15ft 0kts
03-Sep-20 10:07 34.430552 -119.840252 169 15ft 0kts
03-Sep-20 10:08 34.396362 -119.828222 163 820ft 225kts
03-Sep-20 10:09 34.332782 -119.804434 164 2647ft 244kts
03-Sep-20 10:10 34.273138 -119.782429 165 4231ft 227kts
03-Sep-20 10:11 34.211316 -119.763821 147 6219ft 231kts
03-Sep-20 10:12 34.198604 -119.689248 91 7842ft 277kts
03-Sep-20 10:13 34.198100 -119.575340 90 9639ft 368kts
03-Sep-20 10:14 34.205464 -119.456141 88 13227ft 372kts
03-Sep-20 10:15 34.210777 -119.322797 89 17281ft 418kts
03-Sep-20 10:16 34.213641 -119.177580 91 21297ft 444kts
03-Sep-20 10:17 34.229606 -119.030177 77 25838ft 459kts
03-Sep-20 10:18 34.263579 -118.864058 77 26953ft 559kts
03-Sep-20 10:19 34.301205 -118.671492 78 26914ft 598kts
03-Sep-20 10:20 34.338255 -118.472808 78 26916ft 601kts
03-Sep-20 10:21 34.375134 -118.275447 78 26911ft 590kts
03-Sep-20 10:22 34.412412 -118.081642 77 26956ft 593kts
03-Sep-20 10:23 34.471035 -117.894975 64 26969ft 598kts
03-Sep-20 10:24 34.543521 -117.713553 64 26969ft 599kts
03-Sep-20 10:25 34.615835 -117.532375 64 26877ft 586kts
03-Sep-20 10:26 34.682366 -117.363153 65 25867ft 525kts
03-Sep-20 10:27 34.740432 -117.209163 66 24851ft 477kts
03-Sep-20 10:28 34.794416 -117.061226 66 24360ft 484kts
03-Sep-20 10:29 34.848751 -116.911771 66 23898ft 469kts
03-Sep-20 10:30 34.902977 -116.768937 63 23898ft 480kts
03-Sep-20 10:31 34.972024 -116.629494 55 23883ft 459kts
03-Sep-20 10:32 35.039833 -116.509520 53 23913ft 409kts
03-Sep-20 10:33 35.108495 -116.394669 52 23928ft 441kts
03-Sep-20 10:34 35.195933 -116.280693 44 23358ft 461kts
03-Sep-20 10:35 35.283295 -116.169536 44 21356ft 446kts
03-Sep-20 10:36 35.366018 -116.063288 44 19002ft 417kts
03-Sep-20 10:37 35.444839 -115.964339 43 15992ft 395kts
03-Sep-20 10:38 35.519309 -115.872989 43 13591ft 362kts
03-Sep-20 10:39 35.586449 -115.790039 45 12933ft 357kts
03-Sep-20 10:40 35.652611 -115.704689 45 12910ft 333kts
03-Sep-20 10:41 35.716357 -115.622242 45 12912ft 329kts
03-Sep-20 10:42 35.787019 -115.562737 2 12934ft 304kts
03-Sep-20 10:43 35.870205 -115.559522 356 12887ft 294kts
03-Sep-20 10:44 35.954268 -115.561243 354 12892ft 310kts
03-Sep-20 10:45 36.007964 -115.505237 77 12142ft 267kts
03-Sep-20 10:46 36.023037 -115.417813 80 10894ft 250kts
03-Sep-20 10:47 36.027581 -115.327243 94 10675ft 286kts
03-Sep-20 10:48 36.023416 -115.230451 95 9167ft 270kts
03-Sep-20 10:49 36.019539 -115.146223 96 8361ft 247kts
03-Sep-20 10:50 36.014279 -115.057511 96 7897ft 251kts
03-Sep-20 10:51 36.009901 -114.977161 96 7835ft 219kts
03-Sep-20 10:52 36.042412 -114.923413 11 7401ft 249kts
03-Sep-20 10:53 36.103179 -114.941417 302 6395ft 221kts
03-Sep-20 10:54 36.135802 -115.007485 291 5103ft 223kts
03-Sep-20 10:55 36.153035 -115.074385 274 3703ft 177kts
03-Sep-20 10:56 36.139999 -115.125388 233 3023ft 164kts
03-Sep-20 10:57 36.103606 -115.154084 208 2185ft 147kts
03-Sep-20 10:58 36.084262 -115.166012 227 2148ft 9kts
03-Sep-20 10:59 36.084060 -115.166286 228 2150ft 0kts

Navigation Log

Ident Type
Flight plan parsing failed, navigation log unavailable